sensor_id;sensor_type;location;lat;lon;timestamp;P1;durP1;ratioP1;P2;durP2;ratioP2
14268;SDS011;7218;51.480;7.006;2023-07-09T00:01:38;5.57;;;4.35;;
14268;SDS011;7218;51.480;7.006;2023-07-09T00:04:07;8.40;;;4.65;;
14268;SDS011;7218;51.480;7.006;2023-07-09T00:06:36;7.53;;;5.70;;
14268;SDS011;7218;51.480;7.006;2023-07-09T00:09:02;7.80;;;5.15;;
14268;SDS011;7218;51.480;7.006;2023-07-09T00:11:29;5.90;;;4.85;;
14268;SDS011;7218;51.480;7.006;2023-07-09T00:13:56;12.23;;;5.05;;
14268;SDS011;7218;51.480;7.006;2023-07-09T00:16:23;5.65;;;4.65;;
14268;SDS011;7218;51.480;7.006;2023-07-09T00:18:51;9.27;;;5.00;;
14268;SDS011;7218;51.480;7.006;2023-07-09T00:21:18;7.97;;;4.60;;
14268;SDS011;7218;51.480;7.006;2023-07-09T00:23:47;7.07;;;4.35;;
14268;SDS011;7218;51.480;7.006;2023-07-09T00:26:14;5.78;;;4.50;;
14268;SDS011;7218;51.480;7.006;2023-07-09T00:28:42;6.78;;;4.80;;
14268;SDS011;7218;51.480;7.006;2023-07-09T00:31:09;6.95;;;4.70;;
14268;SDS011;7218;51.480;7.006;2023-07-09T00:33:40;6.53;;;4.68;;
14268;SDS011;7218;51.480;7.006;2023-07-09T00:36:08;7.43;;;4.80;;
14268;SDS011;7218;51.480;7.006;2023-07-09T00:38:41;7.32;;;5.45;;
14268;SDS011;7218;51.480;7.006;2023-07-09T00:41:15;8.88;;;5.57;;
14268;SDS011;7218;51.480;7.006;2023-07-09T00:43:44;9.32;;;5.20;;
14268;SDS011;7218;51.480;7.006;2023-07-09T00:46:14;9.32;;;5.40;;
14268;SDS011;7218;51.480;7.006;2023-07-09T00:49:03;8.45;;;5.28;;
14268;SDS011;7218;51.480;7.006;2023-07-09T00:51:33;9.95;;;5.20;;
14268;SDS011;7218;51.480;7.006;2023-07-09T00:54:03;7.68;;;5.13;;
14268;SDS011;7218;51.480;7.006;2023-07-09T00:56:37;6.97;;;5.38;;
14268;SDS011;7218;51.480;7.006;2023-07-09T00:59:06;6.50;;;5.40;;
14268;SDS011;7218;51.480;7.006;2023-07-09T01:01:39;5.85;;;5.07;;
14268;SDS011;7218;51.480;7.006;2023-07-09T01:04:06;7.20;;;5.13;;
14268;SDS011;7218;51.480;7.006;2023-07-09T01:06:37;7.65;;;5.75;;
14268;SDS011;7218;51.480;7.006;2023-07-09T01:09:09;7.35;;;5.63;;
14268;SDS011;7218;51.480;7.006;2023-07-09T01:11:37;8.88;;;6.05;;
14268;SDS011;7218;51.480;7.006;2023-07-09T01:14:04;7.40;;;5.20;;
14268;SDS011;7218;51.480;7.006;2023-07-09T01:16:35;9.30;;;5.55;;
14268;SDS011;7218;51.480;7.006;2023-07-09T01:19:04;9.20;;;5.30;;
14268;SDS011;7218;51.480;7.006;2023-07-09T01:21:32;7.55;;;5.20;;
14268;SDS011;7218;51.480;7.006;2023-07-09T01:24:10;7.93;;;5.40;;
14268;SDS011;7218;51.480;7.006;2023-07-09T01:26:39;6.82;;;4.90;;
14268;SDS011;7218;51.480;7.006;2023-07-09T01:29:05;7.22;;;5.45;;
14268;SDS011;7218;51.480;7.006;2023-07-09T01:31:32;6.57;;;4.90;;
14268;SDS011;7218;51.480;7.006;2023-07-09T01:34:00;8.57;;;5.05;;
14268;SDS011;7218;51.480;7.006;2023-07-09T01:36:26;6.40;;;4.88;;
14268;SDS011;7218;51.480;7.006;2023-07-09T01:38:55;7.57;;;5.15;;
14268;SDS011;7218;51.480;7.006;2023-07-09T01:41:28;6.70;;;4.55;;
14268;SDS011;7218;51.480;7.006;2023-07-09T01:45:19;7.32;;;4.75;;
14268;SDS011;7218;51.480;7.006;2023-07-09T01:48:41;8.93;;;5.40;;
14268;SDS011;7218;51.480;7.006;2023-07-09T05:17:54;7.90;;;5.25;;
14268;SDS011;7218;51.480;7.006;2023-07-09T05:20:21;7.95;;;5.05;;
14268;SDS011;7218;51.480;7.006;2023-07-09T05:22:47;6.53;;;5.32;;
14268;SDS011;7218;51.480;7.006;2023-07-09T05:25:14;6.53;;;5.32;;
14268;SDS011;7218;51.480;7.006;2023-07-09T05:27:40;6.95;;;5.40;;
14268;SDS011;7218;51.480;7.006;2023-07-09T05:30:08;7.72;;;5.60;;
14268;SDS011;7218;51.480;7.006;2023-07-09T05:32:36;7.32;;;5.60;;
14268;SDS011;7218;51.480;7.006;2023-07-09T05:35:05;6.68;;;5.30;;
14268;SDS011;7218;51.480;7.006;2023-07-09T05:37:32;6.82;;;5.70;;
14268;SDS011;7218;51.480;7.006;2023-07-09T05:39:58;7.13;;;6.05;;
14268;SDS011;7218;51.480;7.006;2023-07-09T05:42:25;7.45;;;5.20;;
14268;SDS011;7218;51.480;7.006;2023-07-09T05:44:51;8.07;;;5.43;;
14268;SDS011;7218;51.480;7.006;2023-07-09T05:47:18;7.13;;;5.22;;
14268;SDS011;7218;51.480;7.006;2023-07-09T05:49:45;6.03;;;4.80;;
14268;SDS011;7218;51.480;7.006;2023-07-09T05:52:15;7.85;;;4.82;;
14268;SDS011;7218;51.480;7.006;2023-07-09T05:54:42;7.95;;;5.70;;
14268;SDS011;7218;51.480;7.006;2023-07-09T05:57:09;8.85;;;5.55;;
14268;SDS011;7218;51.480;7.006;2023-07-09T05:59:36;7.80;;;5.38;;
14268;SDS011;7218;51.480;7.006;2023-07-09T06:02:03;9.20;;;6.88;;
14268;SDS011;7218;51.480;7.006;2023-07-09T06:04:32;9.85;;;6.45;;
14268;SDS011;7218;51.480;7.006;2023-07-09T06:07:01;9.02;;;6.00;;
14268;SDS011;7218;51.480;7.006;2023-07-09T06:09:30;9.73;;;6.05;;
14268;SDS011;7218;51.480;7.006;2023-07-09T06:11:57;7.38;;;5.90;;
14268;SDS011;7218;51.480;7.006;2023-07-09T06:14:23;6.47;;;5.53;;
14268;SDS011;7218;51.480;7.006;2023-07-09T06:16:50;9.63;;;5.97;;
14268;SDS011;7218;51.480;7.006;2023-07-09T06:19:17;8.20;;;6.28;;
14268;SDS011;7218;51.480;7.006;2023-07-09T06:21:43;7.43;;;6.32;;
14268;SDS011;7218;51.480;7.006;2023-07-09T06:24:10;6.85;;;5.45;;
14268;SDS011;7218;51.480;7.006;2023-07-09T06:26:38;7.95;;;5.38;;
14268;SDS011;7218;51.480;7.006;2023-07-09T06:29:05;7.13;;;6.07;;
14268;SDS011;7218;51.480;7.006;2023-07-09T06:31:31;7.78;;;6.22;;
14268;SDS011;7218;51.480;7.006;2023-07-09T06:33:58;8.05;;;6.80;;
14268;SDS011;7218;51.480;7.006;2023-07-09T06:36:24;11.85;;;6.88;;
14268;SDS011;7218;51.480;7.006;2023-07-09T06:38:51;9.10;;;6.38;;
14268;SDS011;7218;51.480;7.006;2023-07-09T06:41:18;8.73;;;5.18;;
14268;SDS011;7218;51.480;7.006;2023-07-09T06:43:45;9.73;;;5.63;;
14268;SDS011;7218;51.480;7.006;2023-07-09T06:46:13;7.10;;;5.10;;
14268;SDS011;7218;51.480;7.006;2023-07-09T06:48:40;6.85;;;5.47;;
14268;SDS011;7218;51.480;7.006;2023-07-09T06:51:07;8.32;;;5.13;;
14268;SDS011;7218;51.480;7.006;2023-07-09T06:53:33;8.93;;;5.53;;
14268;SDS011;7218;51.480;7.006;2023-07-09T06:56:01;7.35;;;5.28;;
14268;SDS011;7218;51.480;7.006;2023-07-09T06:58:29;7.97;;;5.63;;
14268;SDS011;7218;51.480;7.006;2023-07-09T07:00:59;9.52;;;5.70;;
14268;SDS011;7218;51.480;7.006;2023-07-09T07:03:28;9.93;;;5.20;;
14268;SDS011;7218;51.480;7.006;2023-07-09T07:05:55;8.15;;;5.30;;
14268;SDS011;7218;51.480;7.006;2023-07-09T07:08:23;10.02;;;6.18;;
14268;SDS011;7218;51.480;7.006;2023-07-09T07:10:53;7.22;;;6.05;;
14268;SDS011;7218;51.480;7.006;2023-07-09T07:13:26;7.70;;;5.50;;
14268;SDS011;7218;51.480;7.006;2023-07-09T07:15:53;9.38;;;7.03;;
14268;SDS011;7218;51.480;7.006;2023-07-09T07:18:21;8.10;;;5.75;;
14268;SDS011;7218;51.480;7.006;2023-07-09T07:20:48;8.52;;;5.68;;
14268;SDS011;7218;51.480;7.006;2023-07-09T07:23:15;10.30;;;5.65;;
14268;SDS011;7218;51.480;7.006;2023-07-09T07:25:42;6.20;;;5.20;;
14268;SDS011;7218;51.480;7.006;2023-07-09T07:28:08;8.40;;;5.30;;
14268;SDS011;7218;51.480;7.006;2023-07-09T07:30:35;7.80;;;5.80;;
14268;SDS011;7218;51.480;7.006;2023-07-09T07:33:01;7.80;;;5.60;;
14268;SDS011;7218;51.480;7.006;2023-07-09T07:35:29;6.55;;;5.55;;
14268;SDS011;7218;51.480;7.006;2023-07-09T07:37:56;7.50;;;5.85;;
14268;SDS011;7218;51.480;7.006;2023-07-09T07:40:22;11.60;;;5.85;;
14268;SDS011;7218;51.480;7.006;2023-07-09T07:42:49;5.85;;;5.20;;
14268;SDS011;7218;51.480;7.006;2023-07-09T07:45:18;7.43;;;5.57;;
14268;SDS011;7218;51.480;7.006;2023-07-09T07:47:49;8.38;;;5.60;;
14268;SDS011;7218;51.480;7.006;2023-07-09T07:50:17;8.73;;;5.60;;
14268;SDS011;7218;51.480;7.006;2023-07-09T07:52:45;6.88;;;5.60;;
14268;SDS011;7218;51.480;7.006;2023-07-09T07:55:11;7.07;;;5.50;;
14268;SDS011;7218;51.480;7.006;2023-07-09T07:57:38;7.72;;;5.45;;
14268;SDS011;7218;51.480;7.006;2023-07-09T08:00:05;8.20;;;6.20;;
14268;SDS011;7218;51.480;7.006;2023-07-09T08:02:32;11.40;;;5.75;;
14268;SDS011;7218;51.480;7.006;2023-07-09T08:04:59;6.65;;;5.90;;
14268;SDS011;7218;51.480;7.006;2023-07-09T08:07:26;7.53;;;5.90;;
14268;SDS011;7218;51.480;7.006;2023-07-09T08:09:54;8.57;;;6.22;;
14268;SDS011;7218;51.480;7.006;2023-07-09T08:12:20;10.98;;;5.72;;
14268;SDS011;7218;51.480;7.006;2023-07-09T08:14:46;9.10;;;6.05;;
14268;SDS011;7218;51.480;7.006;2023-07-09T08:17:13;7.40;;;6.10;;
14268;SDS011;7218;51.480;7.006;2023-07-09T08:19:46;9.68;;;6.20;;
14268;SDS011;7218;51.480;7.006;2023-07-09T08:22:14;8.00;;;5.80;;
14268;SDS011;7218;51.480;7.006;2023-07-09T08:24:47;7.75;;;5.35;;
14268;SDS011;7218;51.480;7.006;2023-07-09T08:27:24;9.80;;;6.13;;
14268;SDS011;7218;51.480;7.006;2023-07-09T08:29:51;8.52;;;5.93;;
14268;SDS011;7218;51.480;7.006;2023-07-09T08:32:21;11.57;;;6.82;;
14268;SDS011;7218;51.480;7.006;2023-07-09T08:34:51;9.38;;;6.13;;
14268;SDS011;7218;51.480;7.006;2023-07-09T08:37:17;7.32;;;5.70;;
14268;SDS011;7218;51.480;7.006;2023-07-09T08:39:44;8.13;;;5.72;;
14268;SDS011;7218;51.480;7.006;2023-07-09T08:42:10;9.05;;;5.65;;
14268;SDS011;7218;51.480;7.006;2023-07-09T08:44:58;9.07;;;6.22;;
14268;SDS011;7218;51.480;7.006;2023-07-09T08:47:45;9.13;;;6.22;;
14268;SDS011;7218;51.480;7.006;2023-07-09T08:50:17;6.90;;;5.68;;
14268;SDS011;7218;51.480;7.006;2023-07-09T08:52:56;10.30;;;6.03;;
14268;SDS011;7218;51.480;7.006;2023-07-09T08:55:25;6.95;;;5.72;;
14268;SDS011;7218;51.480;7.006;2023-07-09T08:57:55;7.05;;;5.75;;
14268;SDS011;7218;51.480;7.006;2023-07-09T09:00:29;7.55;;;5.90;;
14268;SDS011;7218;51.480;7.006;2023-07-09T09:03:14;7.18;;;5.88;;
14268;SDS011;7218;51.480;7.006;2023-07-09T09:05:49;10.60;;;6.00;;
14268;SDS011;7218;51.480;7.006;2023-07-09T09:08:19;7.60;;;5.95;;
14268;SDS011;7218;51.480;7.006;2023-07-09T09:11:00;7.82;;;5.38;;
14268;SDS011;7218;51.480;7.006;2023-07-09T09:13:36;9.40;;;5.57;;
14268;SDS011;7218;51.480;7.006;2023-07-09T09:16:09;9.75;;;5.22;;
14268;SDS011;7218;51.480;7.006;2023-07-09T09:18:43;6.90;;;5.82;;
14268;SDS011;7218;51.480;7.006;2023-07-09T09:21:14;10.48;;;6.07;;
14268;SDS011;7218;51.480;7.006;2023-07-09T09:23:46;8.05;;;5.63;;
14268;SDS011;7218;51.480;7.006;2023-07-09T09:26:28;6.68;;;5.60;;
14268;SDS011;7218;51.480;7.006;2023-07-09T09:29:00;8.10;;;5.50;;
14268;SDS011;7218;51.480;7.006;2023-07-09T09:31:39;8.65;;;5.75;;
14268;SDS011;7218;51.480;7.006;2023-07-09T09:34:16;7.82;;;6.10;;
14268;SDS011;7218;51.480;7.006;2023-07-09T09:36:44;7.75;;;5.70;;
14268;SDS011;7218;51.480;7.006;2023-07-09T09:39:10;7.45;;;5.50;;
14268;SDS011;7218;51.480;7.006;2023-07-09T09:41:37;6.20;;;4.85;;
14268;SDS011;7218;51.480;7.006;2023-07-09T09:44:05;7.57;;;5.07;;
14268;SDS011;7218;51.480;7.006;2023-07-09T09:46:32;6.40;;;5.60;;
14268;SDS011;7218;51.480;7.006;2023-07-09T09:49:02;8.60;;;5.65;;
14268;SDS011;7218;51.480;7.006;2023-07-09T09:51:29;6.60;;;5.65;;
14268;SDS011;7218;51.480;7.006;2023-07-09T09:54:00;9.30;;;5.80;;
14268;SDS011;7218;51.480;7.006;2023-07-09T09:56:30;7.32;;;5.10;;
14268;SDS011;7218;51.480;7.006;2023-07-09T09:59:02;8.15;;;5.32;;
14268;SDS011;7218;51.480;7.006;2023-07-09T10:01:31;10.73;;;5.25;;
14268;SDS011;7218;51.480;7.006;2023-07-09T10:04:00;6.20;;;5.03;;
14268;SDS011;7218;51.480;7.006;2023-07-09T10:06:35;7.05;;;5.10;;
14268;SDS011;7218;51.480;7.006;2023-07-09T10:09:05;8.00;;;4.63;;
14268;SDS011;7218;51.480;7.006;2023-07-09T10:11:44;5.30;;;4.40;;
14268;SDS011;7218;51.480;7.006;2023-07-09T10:14:17;5.63;;;4.60;;
14268;SDS011;7218;51.480;7.006;2023-07-09T10:16:53;5.43;;;4.20;;
14268;SDS011;7218;51.480;7.006;2023-07-09T10:19:30;5.63;;;4.30;;
14268;SDS011;7218;51.480;7.006;2023-07-09T10:22:04;7.05;;;4.15;;
14268;SDS011;7218;51.480;7.006;2023-07-09T10:24:35;5.85;;;3.95;;
14268;SDS011;7218;51.480;7.006;2023-07-09T10:27:12;5.68;;;4.22;;
14268;SDS011;7218;51.480;7.006;2023-07-09T10:29:48;7.60;;;4.10;;
14268;SDS011;7218;51.480;7.006;2023-07-09T10:32:25;7.82;;;4.20;;
14268;SDS011;7218;51.480;7.006;2023-07-09T10:35:00;7.07;;;3.88;;
14268;SDS011;7218;51.480;7.006;2023-07-09T10:37:47;5.63;;;3.90;;
14268;SDS011;7218;51.480;7.006;2023-07-09T10:40:25;6.03;;;4.30;;
14268;SDS011;7218;51.480;7.006;2023-07-09T10:42:57;6.18;;;3.95;;
14268;SDS011;7218;51.480;7.006;2023-07-09T10:45:28;5.32;;;4.43;;
14268;SDS011;7218;51.480;7.006;2023-07-09T10:47:58;7.28;;;3.85;;
14268;SDS011;7218;51.480;7.006;2023-07-09T10:50:28;6.03;;;3.92;;
14268;SDS011;7218;51.480;7.006;2023-07-09T10:52:59;4.20;;;3.67;;
14268;SDS011;7218;51.480;7.006;2023-07-09T10:55:31;7.20;;;4.07;;
14268;SDS011;7218;51.480;7.006;2023-07-09T10:58:05;5.38;;;3.72;;
14268;SDS011;7218;51.480;7.006;2023-07-09T11:00:45;5.05;;;4.00;;
14268;SDS011;7218;51.480;7.006;2023-07-09T11:03:13;5.03;;;3.47;;
14268;SDS011;7218;51.480;7.006;2023-07-09T11:05:43;6.93;;;4.00;;
14268;SDS011;7218;51.480;7.006;2023-07-09T11:08:12;6.10;;;3.50;;
14268;SDS011;7218;51.480;7.006;2023-07-09T11:10:44;6.00;;;4.15;;
14268;SDS011;7218;51.480;7.006;2023-07-09T11:13:17;6.55;;;3.97;;
14268;SDS011;7218;51.480;7.006;2023-07-09T11:15:50;5.03;;;3.67;;
14268;SDS011;7218;51.480;7.006;2023-07-09T11:18:22;5.47;;;3.90;;
14268;SDS011;7218;51.480;7.006;2023-07-09T11:20:55;6.07;;;3.65;;
14268;SDS011;7218;51.480;7.006;2023-07-09T11:23:35;6.38;;;3.65;;
14268;SDS011;7218;51.480;7.006;2023-07-09T11:26:11;5.72;;;3.90;;
14268;SDS011;7218;51.480;7.006;2023-07-09T11:28:40;5.43;;;3.60;;
14268;SDS011;7218;51.480;7.006;2023-07-09T11:31:08;4.93;;;3.65;;
14268;SDS011;7218;51.480;7.006;2023-07-09T11:33:47;5.20;;;3.72;;
14268;SDS011;7218;51.480;7.006;2023-07-09T11:36:23;4.88;;;3.58;;
14268;SDS011;7218;51.480;7.006;2023-07-09T11:38:53;7.88;;;3.45;;
14268;SDS011;7218;51.480;7.006;2023-07-09T11:41:25;4.65;;;3.58;;
14268;SDS011;7218;51.480;7.006;2023-07-09T11:44:01;5.90;;;3.75;;
14268;SDS011;7218;51.480;7.006;2023-07-09T11:46:30;6.40;;;3.70;;
14268;SDS011;7218;51.480;7.006;2023-07-09T11:48:58;5.40;;;3.85;;
14268;SDS011;7218;51.480;7.006;2023-07-09T11:51:29;5.43;;;3.38;;
14268;SDS011;7218;51.480;7.006;2023-07-09T11:54:07;6.40;;;3.85;;
14268;SDS011;7218;51.480;7.006;2023-07-09T11:56:37;5.75;;;3.45;;
14268;SDS011;7218;51.480;7.006;2023-07-09T11:59:04;5.32;;;3.28;;
14268;SDS011;7218;51.480;7.006;2023-07-09T12:01:33;5.38;;;3.80;;
14268;SDS011;7218;51.480;7.006;2023-07-09T12:04:04;5.10;;;3.70;;
14268;SDS011;7218;51.480;7.006;2023-07-09T12:06:31;5.45;;;3.80;;
14268;SDS011;7218;51.480;7.006;2023-07-09T12:08:59;7.95;;;3.67;;
14268;SDS011;7218;51.480;7.006;2023-07-09T12:11:29;6.53;;;3.80;;
14268;SDS011;7218;51.480;7.006;2023-07-09T12:14:01;4.30;;;3.90;;
14268;SDS011;7218;51.480;7.006;2023-07-09T12:16:29;8.90;;;3.70;;
14268;SDS011;7218;51.480;7.006;2023-07-09T12:18:57;5.10;;;3.60;;
14268;SDS011;7218;51.480;7.006;2023-07-09T12:21:24;5.53;;;3.63;;
14268;SDS011;7218;51.480;7.006;2023-07-09T12:23:52;5.20;;;3.88;;
14268;SDS011;7218;51.480;7.006;2023-07-09T12:26:20;6.22;;;3.50;;
14268;SDS011;7218;51.480;7.006;2023-07-09T12:28:52;4.20;;;3.30;;
14268;SDS011;7218;51.480;7.006;2023-07-09T12:31:20;7.93;;;3.65;;
14268;SDS011;7218;51.480;7.006;2023-07-09T12:33:52;6.72;;;3.75;;
14268;SDS011;7218;51.480;7.006;2023-07-09T12:36:19;4.38;;;3.67;;
14268;SDS011;7218;51.480;7.006;2023-07-09T12:38:47;5.15;;;3.45;;
14268;SDS011;7218;51.480;7.006;2023-07-09T12:41:18;6.18;;;3.65;;
14268;SDS011;7218;51.480;7.006;2023-07-09T12:43:48;8.98;;;3.92;;
14268;SDS011;7218;51.480;7.006;2023-07-09T12:46:16;8.15;;;3.80;;
14268;SDS011;7218;51.480;7.006;2023-07-09T12:48:43;7.75;;;3.60;;
14268;SDS011;7218;51.480;7.006;2023-07-09T12:51:13;7.07;;;4.13;;
14268;SDS011;7218;51.480;7.006;2023-07-09T12:53:44;6.93;;;5.60;;
14268;SDS011;7218;51.480;7.006;2023-07-09T12:56:11;6.60;;;4.10;;
14268;SDS011;7218;51.480;7.006;2023-07-09T12:58:39;4.55;;;4.00;;
14268;SDS011;7218;51.480;7.006;2023-07-09T13:01:07;5.47;;;4.03;;
14268;SDS011;7218;51.480;7.006;2023-07-09T13:03:39;7.05;;;3.72;;
14268;SDS011;7218;51.480;7.006;2023-07-09T13:06:23;7.88;;;4.15;;
14268;SDS011;7218;51.480;7.006;2023-07-09T13:08:55;3.85;;;3.47;;
14268;SDS011;7218;51.480;7.006;2023-07-09T13:11:23;8.18;;;3.70;;
14268;SDS011;7218;51.480;7.006;2023-07-09T13:13:53;4.53;;;3.72;;
14268;SDS011;7218;51.480;7.006;2023-07-09T13:16:21;6.63;;;4.18;;
14268;SDS011;7218;51.480;7.006;2023-07-09T13:18:48;9.93;;;3.90;;
14268;SDS011;7218;51.480;7.006;2023-07-09T13:21:16;9.80;;;4.22;;
14268;SDS011;7218;51.480;7.006;2023-07-09T13:23:43;7.18;;;4.00;;
14268;SDS011;7218;51.480;7.006;2023-07-09T13:26:11;5.30;;;4.28;;
14268;SDS011;7218;51.480;7.006;2023-07-09T13:28:38;4.90;;;4.10;;
14268;SDS011;7218;51.480;7.006;2023-07-09T13:31:08;5.88;;;4.40;;
14268;SDS011;7218;51.480;7.006;2023-07-09T13:33:37;5.00;;;4.15;;
14268;SDS011;7218;51.480;7.006;2023-07-09T13:36:05;5.60;;;4.25;;
14268;SDS011;7218;51.480;7.006;2023-07-09T13:38:32;6.25;;;4.07;;
14268;SDS011;7218;51.480;7.006;2023-07-09T13:41:05;6.43;;;4.20;;
14268;SDS011;7218;51.480;7.006;2023-07-09T13:43:43;7.22;;;3.88;;
14268;SDS011;7218;51.480;7.006;2023-07-09T13:46:10;6.35;;;4.57;;
14268;SDS011;7218;51.480;7.006;2023-07-09T13:48:37;10.85;;;7.05;;
14268;SDS011;7218;51.480;7.006;2023-07-09T13:51:13;7.28;;;5.38;;
14268;SDS011;7218;51.480;7.006;2023-07-09T13:53:42;7.75;;;4.28;;
14268;SDS011;7218;51.480;7.006;2023-07-09T13:56:08;5.55;;;4.13;;
14268;SDS011;7218;51.480;7.006;2023-07-09T13:58:35;9.85;;;4.32;;
14268;SDS011;7218;51.480;7.006;2023-07-09T14:01:08;5.45;;;3.90;;
14268;SDS011;7218;51.480;7.006;2023-07-09T14:03:37;9.23;;;4.45;;
14268;SDS011;7218;51.480;7.006;2023-07-09T14:06:03;6.07;;;4.20;;
14268;SDS011;7218;51.480;7.006;2023-07-09T14:08:31;8.18;;;4.50;;
14268;SDS011;7218;51.480;7.006;2023-07-09T14:10:58;8.30;;;4.15;;
14268;SDS011;7218;51.480;7.006;2023-07-09T14:13:25;8.88;;;4.72;;
14268;SDS011;7218;51.480;7.006;2023-07-09T14:15:51;12.10;;;4.78;;
14268;SDS011;7218;51.480;7.006;2023-07-09T14:18:18;8.05;;;4.55;;
14268;SDS011;7218;51.480;7.006;2023-07-09T14:20:46;8.60;;;4.78;;
14268;SDS011;7218;51.480;7.006;2023-07-09T14:23:14;10.13;;;4.55;;
14268;SDS011;7218;51.480;7.006;2023-07-09T14:25:43;9.35;;;5.18;;
14268;SDS011;7218;51.480;7.006;2023-07-09T14:28:11;14.75;;;4.60;;
14268;SDS011;7218;51.480;7.006;2023-07-09T14:30:40;12.45;;;5.43;;
14268;SDS011;7218;51.480;7.006;2023-07-09T14:33:09;15.25;;;5.60;;
14268;SDS011;7218;51.480;7.006;2023-07-09T14:35:38;14.65;;;5.68;;
14268;SDS011;7218;51.480;7.006;2023-07-09T14:38:06;12.85;;;4.95;;
14268;SDS011;7218;51.480;7.006;2023-07-09T14:40:41;11.02;;;5.07;;
14268;SDS011;7218;51.480;7.006;2023-07-09T14:43:09;14.82;;;5.22;;
14268;SDS011;7218;51.480;7.006;2023-07-09T14:45:37;8.50;;;4.63;;
14268;SDS011;7218;51.480;7.006;2023-07-09T14:54:47;21.05;;;7.90;;
14268;SDS011;7218;51.480;7.006;2023-07-09T14:57:19;17.90;;;6.93;;
14268;SDS011;7218;51.480;7.006;2023-07-09T14:59:46;11.48;;;6.43;;
14268;SDS011;7218;51.480;7.006;2023-07-09T15:02:21;8.95;;;5.97;;
14268;SDS011;7218;51.480;7.006;2023-07-09T15:04:49;8.82;;;5.95;;
14268;SDS011;7218;51.480;7.006;2023-07-09T15:07:15;7.50;;;5.15;;
14268;SDS011;7218;51.480;7.006;2023-07-09T15:09:42;7.20;;;5.57;;
14268;SDS011;7218;51.480;7.006;2023-07-09T15:12:12;7.15;;;4.80;;
14268;SDS011;7218;51.480;7.006;2023-07-09T15:14:43;7.68;;;4.95;;
14268;SDS011;7218;51.480;7.006;2023-07-09T15:17:10;7.47;;;4.97;;
14268;SDS011;7218;51.480;7.006;2023-07-09T15:19:37;8.00;;;5.03;;
14268;SDS011;7218;51.480;7.006;2023-07-09T15:22:04;7.35;;;5.82;;
14268;SDS011;7218;51.480;7.006;2023-07-09T15:24:31;9.73;;;5.97;;
14268;SDS011;7218;51.480;7.006;2023-07-09T15:27:01;13.00;;;6.30;;
14268;SDS011;7218;51.480;7.006;2023-07-09T15:29:30;10.07;;;6.50;;
14268;SDS011;7218;51.480;7.006;2023-07-09T15:31:59;12.43;;;6.97;;
14268;SDS011;7218;51.480;7.006;2023-07-09T15:34:25;9.50;;;6.97;;
14268;SDS011;7218;51.480;7.006;2023-07-09T15:36:52;10.30;;;7.00;;
14268;SDS011;7218;51.480;7.006;2023-07-09T15:39:19;15.57;;;8.25;;
14268;SDS011;7218;51.480;7.006;2023-07-09T15:41:46;19.08;;;10.30;;
14268;SDS011;7218;51.480;7.006;2023-07-09T15:44:15;19.45;;;11.52;;
14268;SDS011;7218;51.480;7.006;2023-07-09T15:46:44;14.02;;;9.75;;
14268;SDS011;7218;51.480;7.006;2023-07-09T15:49:17;10.77;;;7.38;;
14268;SDS011;7218;51.480;7.006;2023-07-09T15:51:44;9.75;;;7.28;;
14268;SDS011;7218;51.480;7.006;2023-07-09T15:54:12;9.65;;;7.32;;
14268;SDS011;7218;51.480;7.006;2023-07-09T15:56:41;10.98;;;7.75;;
14268;SDS011;7218;51.480;7.006;2023-07-09T15:59:10;9.40;;;7.47;;
14268;SDS011;7218;51.480;7.006;2023-07-09T16:01:51;9.05;;;6.50;;
14268;SDS011;7218;51.480;7.006;2023-07-09T16:04:19;10.38;;;7.00;;
14268;SDS011;7218;51.480;7.006;2023-07-09T16:06:45;8.77;;;6.82;;
14268;SDS011;7218;51.480;7.006;2023-07-09T16:09:12;9.55;;;7.47;;
14268;SDS011;7218;51.480;7.006;2023-07-09T16:11:39;10.35;;;7.18;;
14268;SDS011;7218;51.480;7.006;2023-07-09T16:14:12;10.93;;;7.43;;
14268;SDS011;7218;51.480;7.006;2023-07-09T16:16:44;12.40;;;7.50;;
14268;SDS011;7218;51.480;7.006;2023-07-09T16:19:15;10.15;;;7.13;;
14268;SDS011;7218;51.480;7.006;2023-07-09T16:21:43;10.25;;;7.53;;
14268;SDS011;7218;51.480;7.006;2023-07-09T16:24:14;9.93;;;7.35;;
14268;SDS011;7218;51.480;7.006;2023-07-09T16:26:48;9.15;;;7.60;;
14268;SDS011;7218;51.480;7.006;2023-07-09T16:29:15;10.25;;;9.05;;
14268;SDS011;7218;51.480;7.006;2023-07-09T16:31:47;11.32;;;8.68;;
14268;SDS011;7218;51.480;7.006;2023-07-09T16:34:14;13.45;;;10.20;;
14268;SDS011;7218;51.480;7.006;2023-07-09T16:36:41;12.82;;;10.20;;
14268;SDS011;7218;51.480;7.006;2023-07-09T16:39:21;14.65;;;9.68;;
14268;SDS011;7218;51.480;7.006;2023-07-09T16:41:50;12.15;;;9.52;;
14268;SDS011;7218;51.480;7.006;2023-07-09T16:44:17;10.00;;;8.43;;
14268;SDS011;7218;51.480;7.006;2023-07-09T16:46:43;15.32;;;9.85;;
14268;SDS011;7218;51.480;7.006;2023-07-09T16:49:16;11.98;;;10.10;;
14268;SDS011;7218;51.480;7.006;2023-07-09T16:51:52;10.77;;;9.63;;
14268;SDS011;7218;51.480;7.006;2023-07-09T16:54:20;12.10;;;9.75;;
14268;SDS011;7218;51.480;7.006;2023-07-09T16:56:46;11.68;;;9.85;;
14268;SDS011;7218;51.480;7.006;2023-07-09T16:59:13;10.07;;;8.80;;
14268;SDS011;7218;51.480;7.006;2023-07-09T17:01:39;9.95;;;8.60;;
14268;SDS011;7218;51.480;7.006;2023-07-09T17:04:12;9.73;;;8.27;;
14268;SDS011;7218;51.480;7.006;2023-07-09T17:06:45;11.18;;;8.75;;
14268;SDS011;7218;51.480;7.006;2023-07-09T17:09:12;10.27;;;8.50;;
14268;SDS011;7218;51.480;7.006;2023-07-09T17:11:40;9.77;;;8.55;;
14268;SDS011;7218;51.480;7.006;2023-07-09T17:14:07;10.07;;;8.25;;
14268;SDS011;7218;51.480;7.006;2023-07-09T17:16:36;11.60;;;9.50;;
14268;SDS011;7218;51.480;7.006;2023-07-09T17:19:04;11.63;;;8.95;;
14268;SDS011;7218;51.480;7.006;2023-07-09T17:21:30;11.85;;;9.40;;
14268;SDS011;7218;51.480;7.006;2023-07-09T17:23:57;11.88;;;9.27;;
14268;SDS011;7218;51.480;7.006;2023-07-09T17:26:23;12.02;;;9.80;;
14268;SDS011;7218;51.480;7.006;2023-07-09T17:28:51;12.30;;;10.15;;
14268;SDS011;7218;51.480;7.006;2023-07-09T17:31:17;14.02;;;11.77;;
14268;SDS011;7218;51.480;7.006;2023-07-09T17:33:44;12.73;;;10.50;;
14268;SDS011;7218;51.480;7.006;2023-07-09T17:36:12;11.68;;;10.00;;
14268;SDS011;7218;51.480;7.006;2023-07-09T17:38:39;13.20;;;10.00;;
14268;SDS011;7218;51.480;7.006;2023-07-09T17:41:07;12.23;;;10.00;;
14268;SDS011;7218;51.480;7.006;2023-07-09T17:43:35;13.07;;;10.40;;
14268;SDS011;7218;51.480;7.006;2023-07-09T17:46:04;13.88;;;10.48;;
14268;SDS011;7218;51.480;7.006;2023-07-09T17:48:32;11.85;;;10.55;;
14268;SDS011;7218;51.480;7.006;2023-07-09T17:51:01;12.38;;;10.45;;
14268;SDS011;7218;51.480;7.006;2023-07-09T17:53:28;12.57;;;11.32;;
14268;SDS011;7218;51.480;7.006;2023-07-09T17:55:56;12.50;;;10.95;;
14268;SDS011;7218;51.480;7.006;2023-07-09T17:58:24;12.27;;;10.13;;
14268;SDS011;7218;51.480;7.006;2023-07-09T18:00:52;12.95;;;10.32;;
14268;SDS011;7218;51.480;7.006;2023-07-09T18:03:21;11.80;;;10.57;;
14268;SDS011;7218;51.480;7.006;2023-07-09T18:05:48;15.38;;;10.90;;
14268;SDS011;7218;51.480;7.006;2023-07-09T18:08:14;12.00;;;10.52;;
14268;SDS011;7218;51.480;7.006;2023-07-09T18:10:42;11.57;;;10.30;;
14268;SDS011;7218;51.480;7.006;2023-07-09T18:13:11;13.43;;;10.50;;
14268;SDS011;7218;51.480;7.006;2023-07-09T18:15:39;11.45;;;10.25;;
14268;SDS011;7218;51.480;7.006;2023-07-09T18:18:09;12.30;;;10.95;;
14268;SDS011;7218;51.480;7.006;2023-07-09T18:20:39;13.55;;;10.93;;
14268;SDS011;7218;51.480;7.006;2023-07-09T18:23:05;11.90;;;10.55;;
14268;SDS011;7218;51.480;7.006;2023-07-09T18:25:32;12.38;;;10.60;;
14268;SDS011;7218;51.480;7.006;2023-07-09T18:28:01;12.00;;;10.70;;
14268;SDS011;7218;51.480;7.006;2023-07-09T18:30:30;13.05;;;11.23;;
14268;SDS011;7218;51.480;7.006;2023-07-09T18:33:01;13.25;;;11.00;;
14268;SDS011;7218;51.480;7.006;2023-07-09T18:35:31;13.73;;;10.80;;
14268;SDS011;7218;51.480;7.006;2023-07-09T18:38:02;12.40;;;11.20;;
14268;SDS011;7218;51.480;7.006;2023-07-09T18:40:30;13.90;;;12.45;;
14268;SDS011;7218;51.480;7.006;2023-07-09T18:43:00;13.50;;;12.10;;
14268;SDS011;7218;51.480;7.006;2023-07-09T18:45:28;15.25;;;12.43;;